sensor_id;sensor_type;location;lat;lon;timestamp;P1;durP1;ratioP1;P2;durP2;ratioP2
82760;SDS011;72498;42.022;21.444;2023-11-18T00:10:35;5.93;;;2.13;;
82760;SDS011;72498;42.022;21.444;2023-11-18T00:13:03;7.15;;;2.13;;
82760;SDS011;72498;42.022;21.444;2023-11-18T00:15:30;5.85;;;2.10;;
82760;SDS011;72498;42.022;21.444;2023-11-18T00:18:00;4.75;;;1.60;;
82760;SDS011;72498;42.022;21.444;2023-11-18T00:20:27;4.40;;;1.23;;
82760;SDS011;72498;42.022;21.444;2023-11-18T00:22:57;5.50;;;1.40;;
82760;SDS011;72498;42.022;21.444;2023-11-18T00:25:23;2.28;;;0.80;;
82760;SDS011;72498;42.022;21.444;2023-11-18T00:27:49;2.90;;;0.90;;
82760;SDS011;72498;42.022;21.444;2023-11-18T00:30:17;3.95;;;1.13;;
82760;SDS011;72498;42.022;21.444;2023-11-18T00:32:43;4.05;;;1.33;;
82760;SDS011;72498;42.022;21.444;2023-11-18T00:35:09;5.03;;;1.98;;
82760;SDS011;72498;42.022;21.444;2023-11-18T00:37:36;9.35;;;2.58;;
82760;SDS011;72498;42.022;21.444;2023-11-18T00:40:02;8.75;;;2.63;;
82760;SDS011;72498;42.022;21.444;2023-11-18T00:42:28;6.55;;;2.83;;
82760;SDS011;72498;42.022;21.444;2023-11-18T00:44:54;5.45;;;2.40;;
82760;SDS011;72498;42.022;21.444;2023-11-18T00:47:22;7.47;;;3.28;;
82760;SDS011;72498;42.022;21.444;2023-11-18T00:49:48;7.47;;;3.05;;
82760;SDS011;72498;42.022;21.444;2023-11-18T00:52:17;6.38;;;2.80;;
82760;SDS011;72498;42.022;21.444;2023-11-18T00:54:43;7.65;;;3.28;;
82760;SDS011;72498;42.022;21.444;2023-11-18T00:57:22;8.05;;;3.45;;
82760;SDS011;72498;42.022;21.444;2023-11-18T00:59:49;7.32;;;2.90;;
82760;SDS011;72498;42.022;21.444;2023-11-18T01:02:15;7.35;;;2.92;;
82760;SDS011;72498;42.022;21.444;2023-11-18T01:04:43;6.07;;;2.45;;
82760;SDS011;72498;42.022;21.444;2023-11-18T01:07:10;6.97;;;2.50;;
82760;SDS011;72498;42.022;21.444;2023-11-18T01:09:37;7.50;;;2.72;;
82760;SDS011;72498;42.022;21.444;2023-11-18T01:12:04;6.38;;;2.70;;
82760;SDS011;72498;42.022;21.444;2023-11-18T01:14:38;7.55;;;2.78;;
82760;SDS011;72498;42.022;21.444;2023-11-18T01:17:08;6.25;;;2.05;;
82760;SDS011;72498;42.022;21.444;2023-11-18T01:19:36;6.63;;;2.05;;
82760;SDS011;72498;42.022;21.444;2023-11-18T01:22:02;6.68;;;1.92;;
82760;SDS011;72498;42.022;21.444;2023-11-18T01:24:32;6.85;;;2.28;;
82760;SDS011;72498;42.022;21.444;2023-11-18T01:26:58;4.50;;;1.90;;
82760;SDS011;72498;42.022;21.444;2023-11-18T01:29:25;4.68;;;1.80;;
82760;SDS011;72498;42.022;21.444;2023-11-18T01:31:53;5.47;;;2.03;;
82760;SDS011;72498;42.022;21.444;2023-11-18T01:34:21;4.97;;;1.80;;
82760;SDS011;72498;42.022;21.444;2023-11-18T01:36:48;6.45;;;1.42;;
82760;SDS011;72498;42.022;21.444;2023-11-18T01:39:17;5.68;;;1.80;;
82760;SDS011;72498;42.022;21.444;2023-11-18T01:41:44;5.75;;;1.70;;
82760;SDS011;72498;42.022;21.444;2023-11-18T01:44:10;4.53;;;1.48;;
82760;SDS011;72498;42.022;21.444;2023-11-18T01:46:39;4.45;;;1.40;;
82760;SDS011;72498;42.022;21.444;2023-11-18T01:49:05;3.55;;;1.48;;
82760;SDS011;72498;42.022;21.444;2023-11-18T01:51:32;3.40;;;1.25;;
82760;SDS011;72498;42.022;21.444;2023-11-18T01:54:00;4.88;;;1.50;;
82760;SDS011;72498;42.022;21.444;2023-11-18T01:56:29;4.28;;;1.58;;
82760;SDS011;72498;42.022;21.444;2023-11-18T01:58:58;4.63;;;1.65;;
82760;SDS011;72498;42.022;21.444;2023-11-18T02:01:27;4.57;;;1.63;;
82760;SDS011;72498;42.022;21.444;2023-11-18T02:03:54;4.95;;;1.67;;
82760;SDS011;72498;42.022;21.444;2023-11-18T02:06:21;5.03;;;1.75;;
82760;SDS011;72498;42.022;21.444;2023-11-18T02:08:49;8.60;;;2.50;;
82760;SDS011;72498;42.022;21.444;2023-11-18T02:11:31;6.35;;;2.15;;
82760;SDS011;72498;42.022;21.444;2023-11-18T02:14:00;6.82;;;1.90;;
82760;SDS011;72498;42.022;21.444;2023-11-18T02:16:30;6.20;;;2.33;;
82760;SDS011;72498;42.022;21.444;2023-11-18T02:19:00;5.80;;;1.95;;
82760;SDS011;72498;42.022;21.444;2023-11-18T02:21:30;10.50;;;2.40;;
82760;SDS011;72498;42.022;21.444;2023-11-18T02:23:59;6.03;;;2.22;;
82760;SDS011;72498;42.022;21.444;2023-11-18T02:26:25;4.95;;;1.88;;
82760;SDS011;72498;42.022;21.444;2023-11-18T02:28:51;4.75;;;1.70;;
82760;SDS011;72498;42.022;21.444;2023-11-18T02:31:23;5.65;;;2.08;;
82760;SDS011;72498;42.022;21.444;2023-11-18T02:34:00;5.43;;;1.80;;
82760;SDS011;72498;42.022;21.444;2023-11-18T02:36:32;4.25;;;1.50;;
82760;SDS011;72498;42.022;21.444;2023-11-18T02:39:03;4.80;;;1.65;;
82760;SDS011;72498;42.022;21.444;2023-11-18T02:41:35;5.07;;;1.90;;
82760;SDS011;72498;42.022;21.444;2023-11-18T02:44:03;5.15;;;2.05;;
82760;SDS011;72498;42.022;21.444;2023-11-18T02:46:34;4.82;;;1.90;;
82760;SDS011;72498;42.022;21.444;2023-11-18T02:49:01;4.57;;;1.30;;
82760;SDS011;72498;42.022;21.444;2023-11-18T02:51:27;4.47;;;1.30;;
82760;SDS011;72498;42.022;21.444;2023-11-18T02:53:56;4.45;;;1.45;;
82760;SDS011;72498;42.022;21.444;2023-11-18T02:56:22;5.25;;;1.48;;
82760;SDS011;72498;42.022;21.444;2023-11-18T02:58:48;6.15;;;1.85;;
82760;SDS011;72498;42.022;21.444;2023-11-18T03:01:15;5.75;;;1.92;;
82760;SDS011;72498;42.022;21.444;2023-11-18T03:03:42;7.30;;;1.98;;
82760;SDS011;72498;42.022;21.444;2023-11-18T03:06:08;5.85;;;1.88;;
82760;SDS011;72498;42.022;21.444;2023-11-18T03:08:36;6.28;;;1.42;;
82760;SDS011;72498;42.022;21.444;2023-11-18T03:11:02;8.10;;;1.90;;
82760;SDS011;72498;42.022;21.444;2023-11-18T03:13:29;6.20;;;1.80;;
82760;SDS011;72498;42.022;21.444;2023-11-18T03:15:57;6.75;;;1.70;;
82760;SDS011;72498;42.022;21.444;2023-11-18T03:18:23;5.65;;;1.80;;
82760;SDS011;72498;42.022;21.444;2023-11-18T03:20:51;4.25;;;1.75;;
82760;SDS011;72498;42.022;21.444;2023-11-18T03:23:17;6.13;;;1.90;;
82760;SDS011;72498;42.022;21.444;2023-11-18T03:25:44;4.63;;;1.92;;
82760;SDS011;72498;42.022;21.444;2023-11-18T03:28:12;7.07;;;1.92;;
82760;SDS011;72498;42.022;21.444;2023-11-18T03:30:39;5.85;;;1.70;;
82760;SDS011;72498;42.022;21.444;2023-11-18T03:33:07;5.75;;;1.48;;
82760;SDS011;72498;42.022;21.444;2023-11-18T03:35:35;7.03;;;1.77;;
82760;SDS011;72498;42.022;21.444;2023-11-18T03:38:02;4.50;;;1.85;;
82760;SDS011;72498;42.022;21.444;2023-11-18T03:40:28;7.75;;;2.00;;
82760;SDS011;72498;42.022;21.444;2023-11-18T03:42:55;7.50;;;1.80;;
82760;SDS011;72498;42.022;21.444;2023-11-18T03:45:23;4.72;;;1.70;;
82760;SDS011;72498;42.022;21.444;2023-11-18T03:47:49;8.25;;;2.28;;
82760;SDS011;72498;42.022;21.444;2023-11-18T03:50:16;5.95;;;1.75;;
82760;SDS011;72498;42.022;21.444;2023-11-18T03:52:42;9.25;;;1.60;;
82760;SDS011;72498;42.022;21.444;2023-11-18T03:55:08;5.68;;;1.85;;
82760;SDS011;72498;42.022;21.444;2023-11-18T03:57:34;4.75;;;1.80;;
82760;SDS011;72498;42.022;21.444;2023-11-18T04:00:01;4.50;;;1.67;;
82760;SDS011;72498;42.022;21.444;2023-11-18T04:02:28;5.10;;;1.50;;
82760;SDS011;72498;42.022;21.444;2023-11-18T04:04:54;4.45;;;1.42;;
82760;SDS011;72498;42.022;21.444;2023-11-18T04:07:20;4.80;;;1.70;;
82760;SDS011;72498;42.022;21.444;2023-11-18T04:09:46;6.88;;;1.58;;
82760;SDS011;72498;42.022;21.444;2023-11-18T04:12:13;5.13;;;1.77;;
82760;SDS011;72498;42.022;21.444;2023-11-18T04:14:41;5.57;;;1.60;;
82760;SDS011;72498;42.022;21.444;2023-11-18T04:17:07;6.35;;;1.90;;
82760;SDS011;72498;42.022;21.444;2023-11-18T04:19:34;6.50;;;2.00;;
82760;SDS011;72498;42.022;21.444;2023-11-18T04:22:00;6.68;;;1.90;;
82760;SDS011;72498;42.022;21.444;2023-11-18T04:24:26;6.75;;;2.13;;
82760;SDS011;72498;42.022;21.444;2023-11-18T04:26:54;6.55;;;2.33;;
82760;SDS011;72498;42.022;21.444;2023-11-18T04:29:21;5.32;;;1.85;;
82760;SDS011;72498;42.022;21.444;2023-11-18T04:31:48;6.35;;;1.80;;
82760;SDS011;72498;42.022;21.444;2023-11-18T04:34:14;7.00;;;1.88;;
82760;SDS011;72498;42.022;21.444;2023-11-18T04:36:41;6.93;;;1.73;;
82760;SDS011;72498;42.022;21.444;2023-11-18T04:39:07;5.55;;;1.50;;
82760;SDS011;72498;42.022;21.444;2023-11-18T04:41:37;6.15;;;1.60;;
82760;SDS011;72498;42.022;21.444;2023-11-18T04:44:03;7.93;;;2.10;;
82760;SDS011;72498;42.022;21.444;2023-11-18T04:46:29;5.65;;;1.40;;
82760;SDS011;72498;42.022;21.444;2023-11-18T04:48:55;5.00;;;1.70;;
82760;SDS011;72498;42.022;21.444;2023-11-18T04:51:21;6.75;;;1.70;;
82760;SDS011;72498;42.022;21.444;2023-11-18T04:53:48;6.28;;;1.60;;
82760;SDS011;72498;42.022;21.444;2023-11-18T04:56:14;6.22;;;1.70;;
82760;SDS011;72498;42.022;21.444;2023-11-18T04:58:43;5.90;;;1.33;;
82760;SDS011;72498;42.022;21.444;2023-11-18T05:01:15;5.85;;;1.67;;
82760;SDS011;72498;42.022;21.444;2023-11-18T05:03:41;6.38;;;1.52;;
82760;SDS011;72498;42.022;21.444;2023-11-18T05:06:07;9.20;;;1.70;;
82760;SDS011;72498;42.022;21.444;2023-11-18T05:08:33;4.60;;;1.73;;
82760;SDS011;72498;42.022;21.444;2023-11-18T05:11:00;6.28;;;1.67;;
82760;SDS011;72498;42.022;21.444;2023-11-18T05:13:27;4.40;;;1.52;;
82760;SDS011;72498;42.022;21.444;2023-11-18T05:15:54;4.30;;;1.55;;
82760;SDS011;72498;42.022;21.444;2023-11-18T05:18:21;6.57;;;1.48;;
82760;SDS011;72498;42.022;21.444;2023-11-18T05:20:48;8.02;;;1.70;;
82760;SDS011;72498;42.022;21.444;2023-11-18T05:23:14;5.70;;;1.70;;
82760;SDS011;72498;42.022;21.444;2023-11-18T05:25:41;5.88;;;1.88;;
82760;SDS011;72498;42.022;21.444;2023-11-18T05:28:08;6.50;;;1.83;;
82760;SDS011;72498;42.022;21.444;2023-11-18T05:30:36;8.82;;;1.90;;
82760;SDS011;72498;42.022;21.444;2023-11-18T05:33:04;5.55;;;1.60;;
82760;SDS011;72498;42.022;21.444;2023-11-18T05:37:58;6.07;;;1.90;;
82760;SDS011;72498;42.022;21.444;2023-11-18T05:40:25;6.47;;;1.92;;
82760;SDS011;72498;42.022;21.444;2023-11-18T05:42:54;5.93;;;2.00;;
82760;SDS011;72498;42.022;21.444;2023-11-18T05:45:20;6.60;;;1.83;;
82760;SDS011;72498;42.022;21.444;2023-11-18T05:48:02;7.70;;;2.20;;
82760;SDS011;72498;42.022;21.444;2023-11-18T05:50:28;6.18;;;1.58;;
82760;SDS011;72498;42.022;21.444;2023-11-18T05:52:55;6.05;;;1.73;;
82760;SDS011;72498;42.022;21.444;2023-11-18T05:55:21;5.88;;;1.75;;
82760;SDS011;72498;42.022;21.444;2023-11-18T05:57:48;5.57;;;1.67;;
82760;SDS011;72498;42.022;21.444;2023-11-18T06:00:14;8.82;;;1.80;;
82760;SDS011;72498;42.022;21.444;2023-11-18T06:02:44;5.72;;;1.70;;
82760;SDS011;72498;42.022;21.444;2023-11-18T06:05:10;4.30;;;1.40;;
82760;SDS011;72498;42.022;21.444;2023-11-18T06:07:37;4.55;;;1.48;;
82760;SDS011;72498;42.022;21.444;2023-11-18T06:10:05;5.20;;;1.70;;
82760;SDS011;72498;42.022;21.444;2023-11-18T06:12:33;5.95;;;1.63;;
82760;SDS011;72498;42.022;21.444;2023-11-18T06:15:02;6.10;;;1.58;;
82760;SDS011;72498;42.022;21.444;2023-11-18T06:17:28;5.03;;;1.60;;
82760;SDS011;72498;42.022;21.444;2023-11-18T06:19:54;4.90;;;1.65;;
82760;SDS011;72498;42.022;21.444;2023-11-18T06:22:22;4.03;;;1.30;;
82760;SDS011;72498;42.022;21.444;2023-11-18T06:24:50;6.75;;;1.50;;
82760;SDS011;72498;42.022;21.444;2023-11-18T06:27:19;4.15;;;1.67;;
82760;SDS011;72498;42.022;21.444;2023-11-18T06:29:48;5.25;;;1.55;;
82760;SDS011;72498;42.022;21.444;2023-11-18T06:32:15;6.28;;;1.67;;
82760;SDS011;72498;42.022;21.444;2023-11-18T06:34:41;5.93;;;1.70;;
82760;SDS011;72498;42.022;21.444;2023-11-18T06:37:08;6.35;;;1.63;;
82760;SDS011;72498;42.022;21.444;2023-11-18T06:39:34;5.00;;;1.75;;
82760;SDS011;72498;42.022;21.444;2023-11-18T06:42:05;4.95;;;1.80;;
82760;SDS011;72498;42.022;21.444;2023-11-18T06:44:36;4.70;;;1.70;;
82760;SDS011;72498;42.022;21.444;2023-11-18T06:47:02;9.57;;;1.85;;
82760;SDS011;72498;42.022;21.444;2023-11-18T06:49:30;5.78;;;2.00;;
82760;SDS011;72498;42.022;21.444;2023-11-18T06:51:59;6.25;;;1.98;;
82760;SDS011;72498;42.022;21.444;2023-11-18T06:54:31;6.00;;;1.40;;
82760;SDS011;72498;42.022;21.444;2023-11-18T06:56:58;5.75;;;1.67;;
82760;SDS011;72498;42.022;21.444;2023-11-18T06:59:30;5.70;;;1.58;;
82760;SDS011;72498;42.022;21.444;2023-11-18T07:01:56;5.18;;;1.45;;
82760;SDS011;72498;42.022;21.444;2023-11-18T07:04:22;4.07;;;1.50;;
82760;SDS011;72498;42.022;21.444;2023-11-18T07:06:49;4.38;;;1.25;;
82760;SDS011;72498;42.022;21.444;2023-11-18T07:09:15;4.57;;;1.50;;
82760;SDS011;72498;42.022;21.444;2023-11-18T07:11:46;4.75;;;1.83;;
82760;SDS011;72498;42.022;21.444;2023-11-18T07:14:13;5.03;;;1.65;;
82760;SDS011;72498;42.022;21.444;2023-11-18T07:16:42;5.43;;;1.50;;
82760;SDS011;72498;42.022;21.444;2023-11-18T07:19:09;3.85;;;1.40;;
82760;SDS011;72498;42.022;21.444;2023-11-18T07:21:42;3.53;;;1.20;;
82760;SDS011;72498;42.022;21.444;2023-11-18T07:24:08;4.05;;;1.52;;
82760;SDS011;72498;42.022;21.444;2023-11-18T07:26:35;4.85;;;1.50;;
82760;SDS011;72498;42.022;21.444;2023-11-18T07:29:01;5.43;;;1.85;;
82760;SDS011;72498;42.022;21.444;2023-11-18T07:31:27;6.32;;;1.70;;
82760;SDS011;72498;42.022;21.444;2023-11-18T07:33:54;4.63;;;1.60;;
82760;SDS011;72498;42.022;21.444;2023-11-18T07:36:22;4.25;;;1.40;;
82760;SDS011;72498;42.022;21.444;2023-11-18T07:38:49;6.32;;;1.90;;
82760;SDS011;72498;42.022;21.444;2023-11-18T07:41:16;3.78;;;1.50;;
82760;SDS011;72498;42.022;21.444;2023-11-18T07:43:52;4.88;;;1.77;;
82760;SDS011;72498;42.022;21.444;2023-11-18T07:46:20;3.63;;;1.33;;
82760;SDS011;72498;42.022;21.444;2023-11-18T07:48:47;5.00;;;1.60;;
82760;SDS011;72498;42.022;21.444;2023-11-18T07:51:14;5.00;;;1.40;;
82760;SDS011;72498;42.022;21.444;2023-11-18T07:53:40;5.40;;;1.70;;
82760;SDS011;72498;42.022;21.444;2023-11-18T07:56:07;4.43;;;1.85;;
82760;SDS011;72498;42.022;21.444;2023-11-18T07:58:36;5.65;;;1.73;;
82760;SDS011;72498;42.022;21.444;2023-11-18T08:01:02;6.82;;;1.40;;
82760;SDS011;72498;42.022;21.444;2023-11-18T08:03:34;5.28;;;1.30;;
82760;SDS011;72498;42.022;21.444;2023-11-18T08:06:08;5.25;;;1.30;;
82760;SDS011;72498;42.022;21.444;2023-11-18T08:14:00;5.03;;;1.27;;
82760;SDS011;72498;42.022;21.444;2023-11-18T08:16:28;4.25;;;1.00;;
82760;SDS011;72498;42.022;21.444;2023-11-18T08:18:57;2.97;;;1.30;;
82760;SDS011;72498;42.022;21.444;2023-11-18T08:21:27;5.68;;;1.00;;
82760;SDS011;72498;42.022;21.444;2023-11-18T08:24:00;4.15;;;1.48;;
82760;SDS011;72498;42.022;21.444;2023-11-18T08:26:52;4.63;;;1.13;;
82760;SDS011;72498;42.022;21.444;2023-11-18T08:29:20;2.60;;;0.85;;
82760;SDS011;72498;42.022;21.444;2023-11-18T08:31:47;3.28;;;1.00;;
82760;SDS011;72498;42.022;21.444;2023-11-18T08:34:15;3.95;;;1.10;;
82760;SDS011;72498;42.022;21.444;2023-11-18T08:36:45;2.42;;;0.80;;
82760;SDS011;72498;42.022;21.444;2023-11-18T08:39:11;3.28;;;1.13;;
82760;SDS011;72498;42.022;21.444;2023-11-18T08:41:59;5.88;;;1.35;;
82760;SDS011;72498;42.022;21.444;2023-11-18T08:44:26;4.32;;;0.90;;
82760;SDS011;72498;42.022;21.444;2023-11-18T08:46:56;5.20;;;1.10;;
82760;SDS011;72498;42.022;21.444;2023-11-18T08:49:26;3.63;;;1.27;;
82760;SDS011;72498;42.022;21.444;2023-11-18T08:52:00;5.50;;;1.30;;
82760;SDS011;72498;42.022;21.444;2023-11-18T08:54:32;6.07;;;1.55;;
82760;SDS011;72498;42.022;21.444;2023-11-18T08:57:04;4.57;;;1.30;;
82760;SDS011;72498;42.022;21.444;2023-11-18T09:05:02;3.45;;;1.27;;
82760;SDS011;72498;42.022;21.444;2023-11-18T09:07:35;4.28;;;1.40;;
82760;SDS011;72498;42.022;21.444;2023-11-18T09:10:05;5.70;;;1.27;;
82760;SDS011;72498;42.022;21.444;2023-11-18T09:12:36;3.78;;;1.20;;
82760;SDS011;72498;42.022;21.444;2023-11-18T09:15:08;4.50;;;1.20;;
82760;SDS011;72498;42.022;21.444;2023-11-18T09:17:43;3.40;;;1.13;;
82760;SDS011;72498;42.022;21.444;2023-11-18T09:20:10;5.35;;;1.75;;
82760;SDS011;72498;42.022;21.444;2023-11-18T09:22:41;5.38;;;1.30;;
82760;SDS011;72498;42.022;21.444;2023-11-18T09:25:09;5.40;;;1.40;;
82760;SDS011;72498;42.022;21.444;2023-11-18T09:27:42;5.60;;;1.58;;
82760;SDS011;72498;42.022;21.444;2023-11-18T09:30:14;5.90;;;1.50;;
82760;SDS011;72498;42.022;21.444;2023-11-18T09:32:44;3.88;;;1.00;;
82760;SDS011;72498;42.022;21.444;2023-11-18T09:35:23;3.17;;;1.15;;
82760;SDS011;72498;42.022;21.444;2023-11-18T09:48:26;5.88;;;1.70;;
82760;SDS011;72498;42.022;21.444;2023-11-18T09:50:54;5.80;;;1.50;;
82760;SDS011;72498;42.022;21.444;2023-11-18T09:56:27;5.32;;;1.50;;
82760;SDS011;72498;42.022;21.444;2023-11-18T09:59:05;5.78;;;1.50;;
82760;SDS011;72498;42.022;21.444;2023-11-18T10:01:38;4.75;;;1.58;;
82760;SDS011;72498;42.022;21.444;2023-11-18T10:07:35;4.50;;;1.40;;
82760;SDS011;72498;42.022;21.444;2023-11-18T10:10:17;5.78;;;1.60;;
82760;SDS011;72498;42.022;21.444;2023-11-18T10:12:50;3.95;;;1.27;;
82760;SDS011;72498;42.022;21.444;2023-11-18T10:26:24;4.05;;;1.10;;
82760;SDS011;72498;42.022;21.444;2023-11-18T10:29:02;5.38;;;1.70;;
82760;SDS011;72498;42.022;21.444;2023-11-18T10:34:43;7.97;;;1.63;;
82760;SDS011;72498;42.022;21.444;2023-11-18T10:37:13;5.78;;;1.55;;
82760;SDS011;72498;42.022;21.444;2023-11-18T10:40:03;6.28;;;1.75;;
82760;SDS011;72498;42.022;21.444;2023-11-18T10:42:40;5.70;;;1.23;;
82760;SDS011;72498;42.022;21.444;2023-11-18T10:45:23;4.47;;;1.30;;
82760;SDS011;72498;42.022;21.444;2023-11-18T10:51:00;3.58;;;1.23;;
82760;SDS011;72498;42.022;21.444;2023-11-18T10:53:33;5.97;;;1.63;;
82760;SDS011;72498;42.022;21.444;2023-11-18T10:56:16;4.15;;;1.10;;
82760;SDS011;72498;42.022;21.444;2023-11-18T11:04:22;5.75;;;1.13;;
82760;SDS011;72498;42.022;21.444;2023-11-18T11:06:52;4.40;;;1.30;;
82760;SDS011;72498;42.022;21.444;2023-11-18T11:09:18;4.55;;;1.30;;
82760;SDS011;72498;42.022;21.444;2023-11-18T11:12:10;8.45;;;1.73;;
82760;SDS011;72498;42.022;21.444;2023-11-18T11:14:59;4.30;;;1.40;;
82760;SDS011;72498;42.022;21.444;2023-11-18T11:17:29;4.90;;;1.13;;
82760;SDS011;72498;42.022;21.444;2023-11-18T11:20:10;6.10;;;1.10;;
82760;SDS011;72498;42.022;21.444;2023-11-18T11:31:30;4.43;;;1.40;;
82760;SDS011;72498;42.022;21.444;2023-11-18T11:34:22;4.13;;;1.40;;
82760;SDS011;72498;42.022;21.444;2023-11-18T11:36:53;5.88;;;1.50;;
82760;SDS011;72498;42.022;21.444;2023-11-18T11:39:22;4.88;;;1.55;;
82760;SDS011;72498;42.022;21.444;2023-11-18T11:44:48;3.08;;;1.20;;
82760;SDS011;72498;42.022;21.444;2023-11-18T11:47:20;4.85;;;1.35;;
82760;SDS011;72498;42.022;21.444;2023-11-18T11:50:48;3.10;;;1.20;;
82760;SDS011;72498;42.022;21.444;2023-11-18T11:53:10;9.48;;;1.30;;
82760;SDS011;72498;42.022;21.444;2023-11-18T11:56:15;8.15;;;1.95;;
82760;SDS011;72498;42.022;21.444;2023-11-18T12:01:51;3.22;;;1.10;;
82760;SDS011;72498;42.022;21.444;2023-11-18T12:04:17;4.25;;;1.02;;
82760;SDS011;72498;42.022;21.444;2023-11-18T13:04:36;6.22;;;1.70;;
82760;SDS011;72498;42.022;21.444;2023-11-18T13:07:05;5.88;;;2.10;;
82760;SDS011;72498;42.022;21.444;2023-11-18T13:09:47;6.15;;;2.00;;
82760;SDS011;72498;42.022;21.444;2023-11-18T13:12:14;5.15;;;1.67;;
82760;SDS011;72498;42.022;21.444;2023-11-18T13:31:03;4.78;;;1.70;;
82760;SDS011;72498;42.022;21.444;2023-11-18T14:39:39;4.28;;;1.38;;
82760;SDS011;72498;42.022;21.444;2023-11-18T14:42:06;5.53;;;1.30;;
82760;SDS011;72498;42.022;21.444;2023-11-18T14:44:39;4.38;;;1.30;;
82760;SDS011;72498;42.022;21.444;2023-11-18T15:09:45;5.38;;;1.33;;
82760;SDS011;72498;42.022;21.444;2023-11-18T15:12:11;6.32;;;1.80;;
82760;SDS011;72498;42.022;21.444;2023-11-18T15:14:39;5.65;;;1.95;;
82760;SDS011;72498;42.022;21.444;2023-11-18T15:17:27;5.85;;;2.10;;
82760;SDS011;72498;42.022;21.444;2023-11-18T15:19:55;5.65;;;2.42;;
82760;SDS011;72498;42.022;21.444;2023-11-18T15:22:31;5.53;;;2.30;;
82760;SDS011;72498;42.022;21.444;2023-11-18T15:25:07;7.32;;;2.60;;
82760;SDS011;72498;42.022;21.444;2023-11-18T15:27:41;6.88;;;2.38;;
82760;SDS011;72498;42.022;21.444;2023-11-18T15:30:31;4.85;;;1.90;;
82760;SDS011;72498;42.022;21.444;2023-11-18T15:35:46;6.18;;;2.15;;
82760;SDS011;72498;42.022;21.444;2023-11-18T15:38:12;5.10;;;2.00;;
82760;SDS011;72498;42.022;21.444;2023-11-18T15:41:08;4.93;;;1.73;;
82760;SDS011;72498;42.022;21.444;2023-11-18T15:43:37;4.95;;;1.75;;
82760;SDS011;72498;42.022;21.444;2023-11-18T15:46:03;5.50;;;1.92;;
82760;SDS011;72498;42.022;21.444;2023-11-18T15:48:31;6.03;;;1.80;;
82760;SDS011;72498;42.022;21.444;2023-11-18T15:51:02;6.97;;;2.40;;
82760;SDS011;72498;42.022;21.444;2023-11-18T15:53:29;5.60;;;2.17;;
82760;SDS011;72498;42.022;21.444;2023-11-18T15:55:56;5.65;;;2.03;;
82760;SDS011;72498;42.022;21.444;2023-11-18T15:58:23;4.32;;;1.45;;
82760;SDS011;72498;42.022;21.444;2023-11-18T16:00:53;7.43;;;2.15;;
82760;SDS011;72498;42.022;21.444;2023-11-18T16:03:55;5.75;;;2.17;;
82760;SDS011;72498;42.022;21.444;2023-11-18T16:06:33;5.82;;;2.22;;
82760;SDS011;72498;42.022;21.444;2023-11-18T16:11:47;5.35;;;1.50;;
82760;SDS011;72498;42.022;21.444;2023-11-18T16:14:20;5.20;;;1.67;;
82760;SDS011;72498;42.022;21.444;2023-11-18T16:16:47;7.22;;;2.53;;
82760;SDS011;72498;42.022;21.444;2023-11-18T16:40:17;7.10;;;1.70;;
82760;SDS011;72498;42.022;21.444;2023-11-18T16:42:52;6.30;;;1.83;;
82760;SDS011;72498;42.022;21.444;2023-11-18T16:45:28;5.13;;;1.52;;
82760;SDS011;72498;42.022;21.444;2023-11-18T17:16:37;6.43;;;1.75;;
82760;SDS011;72498;42.022;21.444;2023-11-18T17:19:07;4.20;;;1.52;;
82760;SDS011;72498;42.022;21.444;2023-11-18T17:29:24;4.82;;;1.60;;
82760;SDS011;72498;42.022;21.444;2023-11-18T17:31:51;5.05;;;1.35;;
82760;SDS011;72498;42.022;21.444;2023-11-18T17:34:20;5.05;;;1.42;;
82760;SDS011;72498;42.022;21.444;2023-11-18T17:36:46;6.10;;;1.98;;
82760;SDS011;72498;42.022;21.444;2023-11-18T17:39:12;4.13;;;1.27;;
82760;SDS011;72498;42.022;21.444;2023-11-18T17:41:40;5.93;;;1.58;;
82760;SDS011;72498;42.022;21.444;2023-11-18T17:44:12;4.25;;;1.67;;
82760;SDS011;72498;42.022;21.444;2023-11-18T17:46:52;4.47;;;1.73;;
82760;SDS011;72498;42.022;21.444;2023-11-18T17:49:20;4.05;;;1.50;;
82760;SDS011;72498;42.022;21.444;2023-11-18T17:51:50;9.43;;;2.20;;
82760;SDS011;72498;42.022;21.444;2023-11-18T17:54:22;5.63;;;2.03;;
82760;SDS011;72498;42.022;21.444;2023-11-18T17:56:51;4.90;;;1.48;;
82760;SDS011;72498;42.022;21.444;2023-11-18T17:59:19;9.45;;;1.60;;
82760;SDS011;72498;42.022;21.444;2023-11-18T18:01:48;5.20;;;1.50;;
82760;SDS011;72498;42.022;21.444;2023-11-18T18:04:39;6.53;;;1.45;;
82760;SDS011;72498;42.022;21.444;2023-11-18T18:07:20;3.80;;;1.20;;
82760;SDS011;72498;42.022;21.444;2023-11-18T18:09:46;3.53;;;1.30;;
82760;SDS011;72498;42.022;21.444;2023-11-18T18:12:15;4.78;;;1.70;;
82760;SDS011;72498;42.022;21.444;2023-11-18T18:14:45;5.93;;;1.70;;
82760;SDS011;72498;42.022;21.444;2023-11-18T18:17:12;6.10;;;1.80;;
82760;SDS011;72498;42.022;21.444;2023-11-18T18:22:32;4.18;;;1.42;;
82760;SDS011;72498;42.022;21.444;2023-11-18T18:27:55;4.20;;;1.50;;
82760;SDS011;72498;42.022;21.444;2023-11-18T18:30:28;4.30;;;1.40;;
82760;SDS011;72498;42.022;21.444;2023-11-18T18:32:54;4.70;;;1.40;;
82760;SDS011;72498;42.022;21.444;2023-11-18T18:35:26;6.97;;;1.40;;
82760;SDS011;72498;42.022;21.444;2023-11-18T18:37:56;3.72;;;1.40;;
82760;SDS011;72498;42.022;21.444;2023-11-18T18:40:27;5.65;;;2.00;;
82760;SDS011;72498;42.022;21.444;2023-11-18T18:43:00;3.75;;;1.23;;
82760;SDS011;72498;42.022;21.444;2023-11-18T18:46:06;6.47;;;1.60;;
82760;SDS011;72498;42.022;21.444;2023-11-18T18:48:32;6.63;;;1.65;;
82760;SDS011;72498;42.022;21.444;2023-11-18T18:51:06;3.75;;;1.33;;
82760;SDS011;72498;42.022;21.444;2023-11-18T18:53:38;5.00;;;1.58;;
82760;SDS011;72498;42.022;21.444;2023-11-18T18:56:21;4.80;;;1.65;;
82760;SDS011;72498;42.022;21.444;2023-11-18T19:39:43;4.65;;;1.40;;
82760;SDS011;72498;42.022;21.444;2023-11-18T19:42:14;4.88;;;1.55;;
82760;SDS011;72498;42.022;21.444;2023-11-18T19:45:02;5.65;;;1.77;;
82760;SDS011;72498;42.022;21.444;2023-11-18T19:50:39;7.25;;;1.45;;
82760;SDS011;72498;42.022;21.444;2023-11-18T20:29:49;5.13;;;1.60;;
82760;SDS011;72498;42.022;21.444;2023-11-18T21:54:20;7.07;;;2.50;;
82760;SDS011;72498;42.022;21.444;2023-11-18T21:59:26;6.70;;;2.00;;
82760;SDS011;72498;42.022;21.444;2023-11-18T22:01:53;6.50;;;1.85;;
82760;SDS011;72498;42.022;21.444;2023-11-18T22:04:40;4.22;;;1.80;;
82760;SDS011;72498;42.022;21.444;2023-11-18T22:07:26;4.10;;;1.63;;
82760;SDS011;72498;42.022;21.444;2023-11-18T22:10:20;6.80;;;1.90;;
82760;SDS011;72498;42.022;21.444;2023-11-18T22:12:47;5.68;;;1.70;;
82760;SDS011;72498;42.022;21.444;2023-11-18T22:15:17;5.00;;;1.60;;
82760;SDS011;72498;42.022;21.444;2023-11-18T22:18:04;5.53;;;1.95;;
82760;SDS011;72498;42.022;21.444;2023-11-18T22:20:34;5.68;;;1.98;;
82760;SDS011;72498;42.022;21.444;2023-11-18T22:28:22;8.63;;;1.95;;
82760;SDS011;72498;42.022;21.444;2023-11-18T22:30:55;6.97;;;1.60;;
82760;SDS011;72498;42.022;21.444;2023-11-18T22:33:32;5.00;;;1.55;;
82760;SDS011;72498;42.022;21.444;2023-11-18T22:36:03;6.85;;;1.60;;
82760;SDS011;72498;42.022;21.444;2023-11-18T22:38:40;3.88;;;1.38;;
82760;SDS011;72498;42.022;21.444;2023-11-18T22:41:19;4.75;;;1.48;;
82760;SDS011;72498;42.022;21.444;2023-11-18T22:44:10;5.85;;;2.22;;
82760;SDS011;72498;42.022;21.444;2023-11-18T22:46:47;4.97;;;1.45;;
82760;SDS011;72498;42.022;21.444;2023-11-18T22:49:15;3.72;;;1.35;;
82760;SDS011;72498;42.022;21.444;2023-11-18T22:51:43;5.35;;;1.67;;